Time,TemperatureF,DewpointF,PressureIn,WindDirection,WindDirectionDegrees,WindSpeedMPH,WindSpeedGustMPH,Humidity,HourlyPrecipIn,Conditions,Clouds,dailyrainin,SoftwareType,DateUTC
2013-01-15 00:02:00,5.0,0.7,30.28,WSW,239,1.0,2.0,82,0.00,,SKC,0.00,VWS V14.01,2013-01-15 06:02:00,
2013-01-15 00:07:00,5.0,0.7,30.28,SW,236,1.0,2.0,82,0.00,,SKC,0.00,VWS V14.01,2013-01-15 06:07:00,
2013-01-15 00:12:00,5.2,0.9,30.28,WSW,241,1.0,2.0,82,0.00,,SKC,0.00,VWS V14.01,2013-01-15 06:12:00,
2013-01-15 00:17:00,5.0,0.5,30.28,WSW,258,1.0,2.0,81,0.00,,SKC,0.00,VWS V14.01,2013-01-15 06:17:00,
2013-01-15 00:22:00,4.8,0.5,30.28,WSW,243,2.0,2.0,82,0.00,,SKC,0.00,VWS V14.01,2013-01-15 06:22:00,
2013-01-15 00:27:00,4.8,0.5,30.28,WSW,253,1.0,3.0,82,0.00,,SKC,0.00,VWS V14.01,2013-01-15 06:27:00,
2013-01-15 00:32:00,4.7,0.4,30.28,WSW,251,1.0,2.0,82,0.00,,SKC,0.00,VWS V14.01,2013-01-15 06:32:00,
2013-01-15 00:37:00,4.8,0.5,30.28,WSW,256,2.0,3.0,82,0.00,,SKC,0.00,VWS V14.01,2013-01-15 06:37:00,
2013-01-15 00:42:00,4.8,0.8,30.28,West,270,2.0,3.0,83,0.00,,SKC,0.00,VWS V14.01,2013-01-15 06:42:00,
2013-01-15 00:47:00,5.6,1.8,30.28,West,274,2.0,3.0,84,0.00,,SKC,0.00,VWS V14.01,2013-01-15 06:47:00,
2013-01-15 00:52:00,6.0,2.2,30.28,West,265,2.0,2.0,84,0.00,,SKC,0.00,VWS V14.01,2013-01-15 06:52:00,
2013-01-15 00:57:00,5.8,1.8,30.28,West,268,4.0,5.0,83,0.00,,SKC,0.00,VWS V14.01,2013-01-15 06:57:00,
2013-01-15 01:02:00,5.6,1.6,30.27,West,267,3.0,4.0,83,0.00,,SKC,0.00,VWS V14.01,2013-01-15 07:02:00,
2013-01-15 01:07:00,5.6,1.6,30.27,West,261,2.0,5.0,83,0.00,,SKC,0.00,VWS V14.01,2013-01-15 07:07:00,
2013-01-15 01:12:00,6.0,2.2,30.27,West,272,2.0,3.0,84,0.00,,SKC,0.00,VWS V14.01,2013-01-15 07:12:00,
2013-01-15 01:17:00,6.3,2.2,30.27,West,267,4.0,5.0,83,0.00,,SKC,0.00,VWS V14.01,2013-01-15 07:17:00,
2013-01-15 01:22:00,6.3,2.2,30.27,West,271,2.0,3.0,83,0.00,,SKC,0.00,VWS V14.01,2013-01-15 07:22:00,
2013-01-15 01:27:00,6.1,2.1,30.27,West,278,1.0,3.0,83,0.00,,SKC,0.00,VWS V14.01,2013-01-15 07:27:00,
2013-01-15 01:32:00,6.0,2.0,30.27,West,277,2.0,3.0,83,0.00,,SKC,0.00,VWS V14.01,2013-01-15 07:32:00,
2013-01-15 01:37:00,5.6,1.6,30.27,West,280,2.0,3.0,83,0.00,,SKC,0.00,VWS V14.01,2013-01-15 07:37:00,
2013-01-15 01:42:00,5.4,1.4,30.27,West,274,2.0,3.0,83,0.00,,SKC,0.00,VWS V14.01,2013-01-15 07:42:00,
2013-01-15 01:47:00,5.2,1.2,30.27,West,281,1.0,3.0,83,0.00,,SKC,0.00,VWS V14.01,2013-01-15 07:47:00,
2013-01-15 01:52:00,5.0,1.0,30.27,West,281,2.0,2.0,83,0.00,,SKC,0.00,VWS V14.01,2013-01-15 07:52:00,
2013-01-15 01:57:00,4.7,0.7,30.27,WNW,282,1.0,2.0,83,0.00,,SKC,0.00,VWS V14.01,2013-01-15 07:57:00,
2013-01-15 02:02:00,4.3,0.3,30.28,West,268,3.0,3.0,83,0.00,,SKC,0.00,VWS V14.01,2013-01-15 08:02:00,
2013-01-15 02:07:00,4.1,0.1,30.28,West,268,1.0,3.0,83,0.00,,SKC,0.00,VWS V14.01,2013-01-15 08:07:00,
2013-01-15 02:12:00,3.9,0.2,30.28,West,263,2.0,2.0,84,0.00,,SKC,0.00,VWS V14.01,2013-01-15 08:12:00,
2013-01-15 02:17:00,3.7,-0.3,30.27,West,263,2.0,2.0,83,0.00,,SKC,0.00,VWS V14.01,2013-01-15 08:17:00,
2013-01-15 02:22:00,3.4,-0.6,30.27,WSW,250,0.0,2.0,83,0.00,,SKC,0.00,VWS V14.01,2013-01-15 08:22:00,
2013-01-15 02:27:00,3.5,-0.2,30.27,WSW,258,1.0,3.0,84,0.00,,SKC,0.00,VWS V14.01,2013-01-15 08:27:00,
2013-01-15 02:32:00,3.9,0.2,30.28,WSW,257,1.0,2.0,84,0.00,,SKC,0.00,VWS V14.01,2013-01-15 08:32:00,
2013-01-15 02:37:00,4.1,0.6,30.28,WSW,257,2.0,2.0,85,0.00,,SKC,0.00,VWS V14.01,2013-01-15 08:37:00,
2013-01-15 02:42:00,4.1,0.6,30.28,WSW,258,2.0,2.0,85,0.00,,SKC,0.00,VWS V14.01,2013-01-15 08:42:00,
2013-01-15 02:47:00,4.5,1.0,30.28,West,265,2.0,3.0,85,0.00,,SKC,0.00,VWS V14.01,2013-01-15 08:47:00,
2013-01-15 02:52:00,4.5,1.0,30.28,West,270,2.0,2.0,85,0.00,,SKC,0.00,VWS V14.01,2013-01-15 08:52:00,
2013-01-15 02:57:00,4.5,1.0,30.28,West,275,1.0,2.0,85,0.00,,SKC,0.00,VWS V14.01,2013-01-15 08:57:00,
2013-01-15 03:02:00,4.3,0.6,30.28,West,281,1.0,3.0,84,0.00,,SKC,0.00,VWS V14.01,2013-01-15 09:02:00,
2013-01-15 03:07:00,4.1,0.6,30.28,West,278,2.0,3.0,85,0.00,,SKC,0.00,VWS V14.01,2013-01-15 09:07:00,
2013-01-15 03:12:00,4.3,0.8,30.28,West,277,1.0,2.0,85,0.00,,SKC,0.00,VWS V14.01,2013-01-15 09:12:00,
2013-01-15 03:20:00,4.5,1.0,30.28,West,278,0.0,0.0,85,0.00,,SKC,0.00,VWS V14.01,2013-01-15 09:20:00,
2013-01-15 03:25:00,4.3,0.8,30.28,West,278,0.0,0.0,85,0.00,,SKC,0.00,VWS V14.01,2013-01-15 09:25:00,
2013-01-15 03:30:00,4.3,0.6,30.28,West,278,0.0,0.0,84,0.00,,SKC,0.00,VWS V14.01,2013-01-15 09:30:00,
2013-01-15 03:35:00,4.3,0.8,30.28,West,278,0.0,0.0,85,0.00,,SKC,0.00,VWS V14.01,2013-01-15 09:35:00,
2013-01-15 03:40:00,4.5,1.0,30.28,West,278,0.0,0.0,85,0.00,,SKC,0.00,VWS V14.01,2013-01-15 09:40:00,
2013-01-15 03:45:00,4.7,1.2,30.27,West,278,0.0,0.0,85,0.00,,SKC,0.00,VWS V14.01,2013-01-15 09:45:00,
2013-01-15 03:50:00,4.7,1.2,30.27,West,278,0.0,0.0,85,0.00,,SKC,0.00,VWS V14.01,2013-01-15 09:50:00,
2013-01-15 03:55:00,4.8,1.3,30.27,West,271,1.0,2.0,85,0.00,,SKC,0.00,VWS V14.01,2013-01-15 09:55:00,
2013-01-15 04:00:00,4.7,1.2,30.26,West,261,1.0,1.0,85,0.00,,SKC,0.00,VWS V14.01,2013-01-15 10:00:00,
2013-01-15 04:05:00,4.3,0.6,30.26,West,271,2.0,3.0,84,0.00,,SKC,0.00,VWS V14.01,2013-01-15 10:05:00,
2013-01-15 04:10:00,4.3,0.8,30.26,West,268,1.0,2.0,85,0.00,,SKC,0.00,VWS V14.01,2013-01-15 10:10:00,
2013-01-15 04:15:00,4.1,0.3,30.27,West,272,2.0,2.0,84,0.00,,SKC,0.00,VWS V14.01,2013-01-15 10:15:00,
2013-01-15 04:20:00,4.1,0.6,30.27,West,277,0.0,1.0,85,0.00,,SKC,0.00,VWS V14.01,2013-01-15 10:20:00,
2013-01-15 04:25:00,3.9,0.4,30.27,West,272,0.0,1.0,85,0.00,,SKC,0.00,VWS V14.01,2013-01-15 10:25:00,
2013-01-15 04:30:00,3.9,0.4,30.26,West,277,0.0,0.0,85,0.00,,SKC,0.00,VWS V14.01,2013-01-15 10:30:00,
2013-01-15 04:35:00,3.9,0.4,30.26,West,277,0.0,0.0,85,0.00,,SKC,0.00,VWS V14.01,2013-01-15 10:35:00,
2013-01-15 04:40:00,3.9,0.4,30.26,West,277,0.0,0.0,85,0.00,,SKC,0.00,VWS V14.01,2013-01-15 10:40:00,
2013-01-15 04:45:00,3.9,0.4,30.26,West,277,0.0,0.0,85,0.00,,SKC,0.00,VWS V14.01,2013-01-15 10:45:00,
2013-01-15 04:50:00,3.9,0.4,30.26,West,277,0.0,0.0,85,0.00,,SKC,0.00,VWS V14.01,2013-01-15 10:50:00,
2013-01-15 04:55:00,3.9,0.4,30.26,West,274,1.0,1.0,85,0.00,,SKC,0.00,VWS V14.01,2013-01-15 10:55:00,
2013-01-15 05:00:00,3.9,0.4,30.25,West,277,1.0,1.0,85,0.00,,SKC,0.00,VWS V14.01,2013-01-15 11:00:00,
2013-01-15 05:05:00,4.1,0.6,30.25,West,277,0.0,2.0,85,0.00,,SKC,0.00,VWS V14.01,2013-01-15 11:05:00,
2013-01-15 05:10:00,3.9,0.4,30.25,West,277,0.0,0.0,85,0.00,,SKC,0.00,VWS V14.01,2013-01-15 11:10:00,
2013-01-15 05:15:00,4.1,0.6,30.25,West,274,0.0,0.0,85,0.00,,SKC,0.00,VWS V14.01,2013-01-15 11:15:00,
2013-01-15 05:20:00,4.3,0.8,30.25,West,274,0.0,0.0,85,0.00,,SKC,0.00,VWS V14.01,2013-01-15 11:20:00,
2013-01-15 05:25:00,3.9,0.2,30.25,West,274,0.0,0.0,84,0.00,,SKC,0.00,VWS V14.01,2013-01-15 11:25:00,
2013-01-15 05:30:00,3.4,-0.3,30.24,West,274,0.0,0.0,84,0.00,,SKC,0.00,VWS V14.01,2013-01-15 11:30:00,
2013-01-15 05:35:00,3.5,0.0,30.24,West,274,0.0,0.0,85,0.00,,SKC,0.00,VWS V14.01,2013-01-15 11:35:00,
2013-01-15 05:40:00,3.7,0.2,30.24,West,270,0.0,1.0,85,0.00,,SKC,0.00,VWS V14.01,2013-01-15 11:40:00,
2013-01-15 05:45:00,3.9,0.4,30.23,SW,216,1.0,2.0,85,0.00,,SKC,0.00,VWS V14.01,2013-01-15 11:45:00,
2013-01-15 05:50:00,3.9,0.4,30.23,SSW,212,2.0,2.0,85,0.00,,SKC,0.00,VWS V14.01,2013-01-15 11:50:00,
2013-01-15 05:55:00,3.5,-0.2,30.23,SSW,210,0.0,2.0,84,0.00,,SKC,0.00,VWS V14.01,2013-01-15 11:55:00,
2013-01-15 06:00:00,3.4,-0.3,30.23,SSW,210,0.0,0.0,84,0.00,,SKC,0.00,VWS V14.01,2013-01-15 12:00:00,
2013-01-15 06:05:00,3.5,0.0,30.23,SSW,212,0.0,0.0,85,0.00,,SKC,0.00,VWS V14.01,2013-01-15 12:05:00,
2013-01-15 06:10:00,3.9,0.4,30.23,SW,220,1.0,2.0,85,0.00,,SKC,0.00,VWS V14.01,2013-01-15 12:10:00,
2013-01-15 06:15:00,3.5,-0.2,30.24,SW,230,2.0,2.0,84,0.00,,SKC,0.00,VWS V14.01,2013-01-15 12:15:00,
2013-01-15 06:20:00,3.5,0.0,30.24,SSW,205,1.0,2.0,85,0.00,,SKC,0.00,VWS V14.01,2013-01-15 12:20:00,
2013-01-15 06:25:00,3.5,-0.2,30.24,SSW,213,2.0,2.0,84,0.00,,SKC,0.00,VWS V14.01,2013-01-15 12:25:00,
2013-01-15 06:30:00,3.7,0.0,30.24,SW,220,1.0,2.0,84,0.00,,SKC,0.00,VWS V14.01,2013-01-15 12:30:00,
2013-01-15 06:35:00,3.7,0.0,30.24,SW,219,1.0,2.0,84,0.00,,SKC,0.00,VWS V14.01,2013-01-15 12:35:00,
2013-01-15 06:40:00,3.7,0.0,30.24,SW,223,1.0,2.0,84,0.00,,SKC,0.00,VWS V14.01,2013-01-15 12:40:00,
2013-01-15 06:45:00,3.5,-0.2,30.24,SW,220,1.0,2.0,84,0.00,,SKC,0.00,VWS V14.01,2013-01-15 12:45:00,
2013-01-15 06:50:00,3.7,0.2,30.24,SW,220,0.0,2.0,85,0.00,,SKC,0.00,VWS V14.01,2013-01-15 12:50:00,
2013-01-15 06:55:00,4.1,0.6,30.24,SW,234,2.0,2.0,85,0.00,,SKC,0.00,VWS V14.01,2013-01-15 12:55:00,
2013-01-15 07:00:00,4.3,0.8,30.23,SSW,212,1.0,2.0,85,0.00,,SKC,0.00,VWS V14.01,2013-01-15 13:00:00,
2013-01-15 07:05:00,4.5,1.0,30.23,SSW,212,0.0,1.0,85,0.00,,SKC,0.00,VWS V14.01,2013-01-15 13:05:00,
2013-01-15 07:10:00,4.7,1.2,30.23,SSW,212,0.0,1.0,85,0.00,,SKC,0.00,VWS V14.01,2013-01-15 13:10:00,
2013-01-15 07:15:00,4.7,1.2,30.23,SSW,212,0.0,0.0,85,0.00,,SKC,0.00,VWS V14.01,2013-01-15 13:15:00,
2013-01-15 07:20:00,4.8,1.3,30.23,SSW,212,0.0,0.0,85,0.00,,SKC,0.00,VWS V14.01,2013-01-15 13:20:00,
2013-01-15 07:25:00,5.0,1.5,30.23,SSW,212,0.0,0.0,85,0.00,,SKC,0.00,VWS V14.01,2013-01-15 13:25:00,
2013-01-15 07:30:00,5.0,1.5,30.24,SSW,212,0.0,0.0,85,0.00,,SKC,0.00,VWS V14.01,2013-01-15 13:30:00,
2013-01-15 07:35:00,5.2,1.7,30.24,SSW,212,0.0,0.0,85,0.00,,SKC,0.00,VWS V14.01,2013-01-15 13:35:00,
2013-01-15 07:40:00,5.4,1.9,30.24,SW,224,0.0,2.0,85,0.00,,SKC,0.00,VWS V14.01,2013-01-15 13:40:00,
2013-01-15 07:45:00,5.6,2.1,30.23,SSW,213,2.0,2.0,85,0.00,,SKC,0.00,VWS V14.01,2013-01-15 13:45:00,
2013-01-15 07:50:00,5.8,2.5,30.23,SSW,212,1.0,3.0,86,0.00,,SKC,0.00,VWS V14.01,2013-01-15 13:50:00,
2013-01-15 07:55:00,6.1,2.8,30.23,SSW,196,2.0,2.0,86,0.00,,SKC,0.00,VWS V14.01,2013-01-15 13:55:00,
2013-01-15 08:00:00,6.3,3.0,30.23,South,178,2.0,3.0,86,0.00,,SKC,0.00,VWS V14.01,2013-01-15 14:00:00,
2013-01-15 08:05:00,6.5,3.2,30.23,South,182,2.0,4.0,86,0.00,,SKC,0.00,VWS V14.01,2013-01-15 14:05:00,
2013-01-15 08:10:00,6.7,3.4,30.23,South,188,3.0,4.0,86,0.00,,SKC,0.00,VWS V14.01,2013-01-15 14:10:00,
2013-01-15 08:15:00,6.9,3.6,30.23,SSW,199,1.0,4.0,86,0.00,,SKC,0.00,VWS V14.01,2013-01-15 14:15:00,
2013-01-15 08:20:00,7.0,3.7,30.23,SSW,199,2.0,4.0,86,0.00,,SKC,0.00,VWS V14.01,2013-01-15 14:20:00,
2013-01-15 08:25:00,7.2,3.9,30.23,SSW,213,3.0,4.0,86,0.00,,SKC,0.00,VWS V14.01,2013-01-15 14:25:00,
2013-01-15 08:30:00,7.4,4.1,30.23,South,184,2.0,4.0,86,0.00,,SKC,0.00,VWS V14.01,2013-01-15 14:30:00,
2013-01-15 08:35:00,7.4,4.1,30.23,SSW,209,2.0,3.0,86,0.00,,SKC,0.00,VWS V14.01,2013-01-15 14:35:00,
2013-01-15 08:39:00,7.4,4.1,30.23,SSW,203,2.0,5.0,86,0.00,,SKC,0.00,VWS V14.01,2013-01-15 14:39:00,
2013-01-15 08:44:00,7.9,4.6,30.23,SW,233,2.0,5.0,86,0.00,,SKC,0.00,VWS V14.01,2013-01-15 14:44:00,
2013-01-15 08:49:00,8.1,4.8,30.23,South,188,2.0,5.0,86,0.00,,SKC,0.00,VWS V14.01,2013-01-15 14:49:00,
2013-01-15 08:54:00,8.1,4.8,30.23,South,185,3.0,5.0,86,0.00,,SKC,0.00,VWS V14.01,2013-01-15 14:54:00,
2013-01-15 08:59:00,8.1,4.8,30.22,SSW,192,3.0,5.0,86,0.00,,SKC,0.00,VWS V14.01,2013-01-15 14:59:00,
2013-01-15 09:04:00,8.3,5.0,30.22,SSW,202,2.0,4.0,86,0.00,,SKC,0.00,VWS V14.01,2013-01-15 15:04:00,
2013-01-15 09:09:00,8.4,5.1,30.22,SW,224,3.0,5.0,86,0.00,,SKC,0.00,VWS V14.01,2013-01-15 15:09:00,
2013-01-15 09:14:00,8.6,5.5,30.22,SW,215,3.0,5.0,87,0.00,,SKC,0.00,VWS V14.01,2013-01-15 15:14:00,
2013-01-15 09:19:00,8.8,5.7,30.22,SW,217,5.0,5.0,87,0.00,,SKC,0.00,VWS V14.01,2013-01-15 15:19:00,
2013-01-15 09:24:00,9.3,6.2,30.22,SSW,212,2.0,5.0,87,0.00,,SKC,0.00,VWS V14.01,2013-01-15 15:24:00,
2013-01-15 09:29:00,9.9,6.8,30.22,WSW,246,3.0,5.0,87,0.00,,SKC,0.00,VWS V14.01,2013-01-15 15:29:00,
2013-01-15 09:34:00,10.4,7.1,30.22,WSW,247,3.0,6.0,86,0.00,,SKC,0.00,VWS V14.01,2013-01-15 15:34:00,
2013-01-15 09:39:00,10.7,7.1,30.22,SSW,213,5.0,6.0,85,0.00,,SKC,0.00,VWS V14.01,2013-01-15 15:39:00,
2013-01-15 09:44:00,10.9,7.0,30.21,SW,233,5.0,7.0,84,0.00,,SKC,0.00,VWS V14.01,2013-01-15 15:44:00,
2013-01-15 09:49:00,10.9,6.8,30.21,SW,216,6.0,7.0,83,0.00,,SKC,0.00,VWS V14.01,2013-01-15 15:49:00,
2013-01-15 09:54:00,11.2,6.8,30.21,SW,217,5.0,7.0,82,0.00,,SKC,0.00,VWS V14.01,2013-01-15 15:54:00,
2013-01-15 09:59:00,11.6,6.9,30.20,SW,220,2.0,8.0,81,0.00,,SKC,0.00,VWS V14.01,2013-01-15 15:59:00,
2013-01-15 10:04:00,11.9,7.2,30.20,WSW,240,5.0,7.0,81,0.00,,SKC,0.00,VWS V14.01,2013-01-15 16:04:00,
2013-01-15 10:09:00,12.3,7.3,30.20,SW,216,5.0,7.0,80,0.00,,SKC,0.00,VWS V14.01,2013-01-15 16:09:00,
2013-01-15 10:14:00,12.6,7.6,30.20,SSW,209,6.0,6.0,80,0.00,,SKC,0.00,VWS V14.01,2013-01-15 16:14:00,
2013-01-15 10:19:00,12.9,7.6,30.20,SSW,208,6.0,8.0,79,0.00,,SKC,0.00,VWS V14.01,2013-01-15 16:19:00,
2013-01-15 10:24:00,13.1,7.8,30.20,SSW,208,6.0,9.0,79,0.00,,SKC,0.00,VWS V14.01,2013-01-15 16:24:00,
2013-01-15 10:29:00,13.5,7.9,30.19,SSW,209,6.0,9.0,78,0.00,,SKC,0.00,VWS V14.01,2013-01-15 16:29:00,
2013-01-15 10:34:00,13.8,7.7,30.19,SW,222,6.0,12.0,76,0.00,,SKC,0.00,VWS V14.01,2013-01-15 16:34:00,
2013-01-15 10:39:00,14.0,7.6,30.19,SW,232,6.0,12.0,75,0.00,,SKC,0.00,VWS V14.01,2013-01-15 16:39:00,
2013-01-15 10:44:00,14.1,7.7,30.19,SW,236,5.0,9.0,75,0.00,,SKC,0.00,VWS V14.01,2013-01-15 16:44:00,
2013-01-15 10:49:00,14.4,7.9,30.19,SW,230,6.0,9.0,75,0.00,,SKC,0.00,VWS V14.01,2013-01-15 16:49:00,
2013-01-15 10:54:00,14.6,7.8,30.19,SW,215,7.0,11.0,74,0.00,,SKC,0.00,VWS V14.01,2013-01-15 16:54:00,
2013-01-15 10:59:00,14.9,8.1,30.18,SW,232,5.0,11.0,74,0.00,,SKC,0.00,VWS V14.01,2013-01-15 16:59:00,
2013-01-15 11:04:00,15.1,8.0,30.18,SSW,212,3.0,10.0,73,0.00,,SKC,0.00,VWS V14.01,2013-01-15 17:04:00,
2013-01-15 11:09:00,15.4,8.0,30.18,SW,229,10.0,10.0,72,0.00,,SKC,0.00,VWS V14.01,2013-01-15 17:09:00,
2013-01-15 11:14:00,15.6,8.2,30.18,WSW,237,6.0,10.0,72,0.00,,SKC,0.00,VWS V14.01,2013-01-15 17:14:00,
2013-01-15 11:19:00,15.7,8.0,30.18,SW,229,7.0,11.0,71,0.00,,SKC,0.00,VWS V14.01,2013-01-15 17:19:00,
2013-01-15 11:24:00,15.9,8.2,30.18,SW,226,8.0,13.0,71,0.00,,SKC,0.00,VWS V14.01,2013-01-15 17:24:00,
2013-01-15 11:29:00,16.2,8.5,30.16,SW,234,6.0,13.0,71,0.00,,SKC,0.00,VWS V14.01,2013-01-15 17:29:00,
2013-01-15 11:34:00,16.5,8.4,30.16,SW,215,8.0,11.0,70,0.00,,SKC,0.00,VWS V14.01,2013-01-15 17:34:00,
2013-01-15 11:39:00,16.5,8.8,30.16,SW,229,7.0,12.0,71,0.00,,SKC,0.00,VWS V14.01,2013-01-15 17:39:00,
2013-01-15 11:44:00,16.7,8.9,30.15,SW,230,8.0,11.0,71,0.00,,SKC,0.00,VWS V14.01,2013-01-15 17:44:00,
2013-01-15 11:49:00,16.7,9.3,30.15,SW,226,9.0,12.0,72,0.00,,SKC,0.00,VWS V14.01,2013-01-15 17:49:00,
2013-01-15 11:54:00,16.7,9.3,30.15,WSW,243,6.0,13.0,72,0.00,,SKC,0.00,VWS V14.01,2013-01-15 17:54:00,
2013-01-15 11:59:00,16.9,9.1,30.14,SW,229,11.0,13.0,71,0.00,,SKC,0.00,VWS V14.01,2013-01-15 17:59:00,
2013-01-15 12:04:00,16.9,8.8,30.14,SW,215,11.0,14.0,70,0.00,,SKC,0.00,VWS V14.01,2013-01-15 18:04:00,
2013-01-15 12:09:00,17.0,8.9,30.14,SW,220,7.0,16.0,70,0.00,,SKC,0.00,VWS V14.01,2013-01-15 18:09:00,
2013-01-15 12:14:00,17.0,8.9,30.13,SSW,205,8.0,12.0,70,0.00,,SKC,0.00,VWS V14.01,2013-01-15 18:14:00,
2013-01-15 12:19:00,16.9,9.1,30.13,SW,229,17.0,17.0,71,0.00,,SKC,0.00,VWS V14.01,2013-01-15 18:19:00,
2013-01-15 12:24:00,17.0,8.9,30.13,SSW,208,11.0,18.0,70,0.00,,SKC,0.00,VWS V14.01,2013-01-15 18:24:00,
2013-01-15 12:29:00,17.0,8.9,30.12,SW,229,18.0,18.0,70,0.00,,SKC,0.00,VWS V14.01,2013-01-15 18:29:00,
2013-01-15 12:34:00,17.0,8.9,30.12,SW,223,12.0,17.0,70,0.00,,SKC,0.00,VWS V14.01,2013-01-15 18:34:00,
2013-01-15 12:39:00,17.3,9.2,30.12,SW,215,10.0,17.0,70,0.00,,SKC,0.00,VWS V14.01,2013-01-15 18:39:00,
2013-01-15 12:44:00,17.8,9.0,30.12,SSW,200,11.0,14.0,68,0.00,,SKC,0.00,VWS V14.01,2013-01-15 18:44:00,
2013-01-15 12:49:00,18.1,9.7,30.10,SW,217,6.0,14.0,69,0.00,,SKC,0.00,VWS V14.01,2013-01-15 18:49:00,
2013-01-15 12:54:00,18.1,9.7,30.10,SW,217,8.0,14.0,69,0.00,,SKC,0.00,VWS V14.01,2013-01-15 18:54:00,
2013-01-15 12:59:00,18.4,10.6,30.10,SW,230,9.0,15.0,71,0.00,,SKC,0.00,VWS V14.01,2013-01-15 18:59:00,
2013-01-15 13:04:00,18.4,9.6,30.10,SSW,209,7.0,14.0,68,0.00,,SKC,0.00,VWS V14.01,2013-01-15 19:04:00,
2013-01-15 13:09:00,18.6,10.1,30.10,SW,229,10.0,14.0,69,0.00,,SKC,0.00,VWS V14.01,2013-01-15 19:09:00,
2013-01-15 13:14:00,18.8,9.7,30.10,WSW,244,10.0,13.0,67,0.00,,SKC,0.00,VWS V14.01,2013-01-15 19:14:00,
2013-01-15 13:19:00,19.1,10.0,30.10,SW,229,10.0,13.0,67,0.00,,SKC,0.00,VWS V14.01,2013-01-15 19:19:00,
2013-01-15 13:24:00,19.2,10.1,30.10,SW,222,6.0,12.0,67,0.00,,SKC,0.00,VWS V14.01,2013-01-15 19:24:00,
2013-01-15 13:29:00,19.4,10.2,30.10,WSW,247,7.0,13.0,67,0.00,,SKC,0.00,VWS V14.01,2013-01-15 19:29:00,
2013-01-15 13:34:00,19.7,11.2,30.10,WSW,240,4.0,10.0,69,0.00,,SKC,0.00,VWS V14.01,2013-01-15 19:34:00,
2013-01-15 13:39:00,20.0,10.5,30.10,WSW,239,9.0,11.0,66,0.00,,SKC,0.00,VWS V14.01,2013-01-15 19:39:00,
2013-01-15 13:44:00,20.0,10.1,30.10,West,278,7.0,11.0,65,0.00,,SKC,0.00,VWS V14.01,2013-01-15 19:44:00,
2013-01-15 13:49:00,20.2,10.3,30.10,WSW,237,7.0,12.0,65,0.00,,SKC,0.00,VWS V14.01,2013-01-15 19:49:00,
2013-01-15 13:54:00,20.3,10.4,30.10,WSW,246,8.0,11.0,65,0.00,,SKC,0.00,VWS V14.01,2013-01-15 19:54:00,
2013-01-15 13:59:00,20.6,10.7,30.10,SW,222,7.0,11.0,65,0.00,,SKC,0.00,VWS V14.01,2013-01-15 19:59:00,
2013-01-15 14:04:00,20.8,10.6,30.08,SW,234,7.0,11.0,64,0.00,,SKC,0.00,VWS V14.01,2013-01-15 20:04:00,
2013-01-15 14:09:00,21.0,10.8,30.08,SW,220,5.0,11.0,64,0.00,,SKC,0.00,VWS V14.01,2013-01-15 20:09:00,
2013-01-15 14:14:00,21.1,10.5,30.08,WSW,240,8.0,10.0,63,0.00,,SKC,0.00,VWS V14.01,2013-01-15 20:14:00,
2013-01-15 14:19:00,21.3,11.4,30.08,SSW,212,10.0,10.0,65,0.00,,SKC,0.00,VWS V14.01,2013-01-15 20:19:00,
2013-01-15 14:24:00,21.4,11.1,30.08,SW,227,6.0,10.0,64,0.00,,SKC,0.00,VWS V14.01,2013-01-15 20:24:00,
2013-01-15 14:29:00,21.6,11.7,30.08,SSW,209,7.0,10.0,65,0.00,,SKC,0.00,VWS V14.01,2013-01-15 20:29:00,
2013-01-15 14:34:00,21.8,11.2,30.07,WSW,239,9.0,11.0,63,0.00,,SKC,0.00,VWS V14.01,2013-01-15 20:34:00,
2013-01-15 14:39:00,21.9,12.0,30.07,SW,224,6.0,12.0,65,0.00,,SKC,0.00,VWS V14.01,2013-01-15 20:39:00,
2013-01-15 14:44:00,22.1,11.8,30.07,SW,232,5.0,11.0,64,0.00,,SKC,0.00,VWS V14.01,2013-01-15 20:44:00,
2013-01-15 14:49:00,22.1,11.8,30.06,SW,220,8.0,12.0,64,0.00,,SKC,0.00,VWS V14.01,2013-01-15 20:49:00,
2013-01-15 14:54:00,22.2,11.9,30.06,SW,224,7.0,12.0,64,0.00,,SKC,0.00,VWS V14.01,2013-01-15 20:54:00,
2013-01-15 14:59:00,22.4,12.1,30.06,SW,223,12.0,14.0,64,0.00,,SKC,0.00,VWS V14.01,2013-01-15 20:59:00,
2013-01-15 15:04:00,22.5,12.5,30.07,SW,234,9.0,10.0,65,0.00,,SKC,0.00,VWS V14.01,2013-01-15 21:04:00,
2013-01-15 15:09:00,22.7,12.4,30.07,SW,220,8.0,13.0,64,0.00,,SKC,0.00,VWS V14.01,2013-01-15 21:09:00,
2013-01-15 15:13:00,22.7,12.4,30.07,SW,236,10.0,14.0,64,0.00,,SKC,0.00,VWS V14.01,2013-01-15 21:13:00,
2013-01-15 15:18:00,22.9,12.9,30.07,WSW,244,8.0,14.0,65,0.00,,SKC,0.00,VWS V14.01,2013-01-15 21:18:00,
2013-01-15 15:23:00,23.0,13.0,30.07,SW,222,10.0,14.0,65,0.00,,SKC,0.00,VWS V14.01,2013-01-15 21:23:00,
2013-01-15 15:28:00,23.0,13.0,30.07,SW,234,13.0,16.0,65,0.00,,SKC,0.00,VWS V14.01,2013-01-15 21:28:00,
2013-01-15 15:33:00,23.0,13.7,30.06,SW,227,10.0,11.0,67,0.00,,SKC,0.00,VWS V14.01,2013-01-15 21:33:00,
2013-01-15 15:38:00,23.2,13.9,30.06,WSW,253,13.0,13.0,67,0.00,,SKC,0.00,VWS V14.01,2013-01-15 21:38:00,
2013-01-15 15:43:00,23.2,14.2,30.06,SW,226,6.0,12.0,68,0.00,,SKC,0.00,VWS V14.01,2013-01-15 21:43:00,
2013-01-15 15:48:00,23.2,14.6,30.06,SW,224,8.0,13.0,69,0.00,,SKC,0.00,VWS V14.01,2013-01-15 21:48:00,
2013-01-15 15:53:00,23.3,15.0,30.06,WSW,239,7.0,11.0,70,0.00,,SKC,0.00,VWS V14.01,2013-01-15 21:53:00,
2013-01-15 15:58:00,23.3,15.0,30.06,WSW,250,7.0,11.0,70,0.00,,SKC,0.00,VWS V14.01,2013-01-15 21:58:00,
2013-01-15 16:03:00,23.3,15.3,30.06,SW,232,8.0,11.0,71,0.00,,SKC,0.00,VWS V14.01,2013-01-15 22:03:00,
2013-01-15 16:08:00,23.2,15.5,30.06,SSW,212,10.0,11.0,72,0.00,,SKC,0.00,VWS V14.01,2013-01-15 22:08:00,
2013-01-15 16:13:00,23.2,15.5,30.06,SW,233,11.0,12.0,72,0.00,,SKC,0.00,VWS V14.01,2013-01-15 22:13:00,
2013-01-15 16:18:00,23.2,15.8,30.06,SSW,212,7.0,12.0,73,0.00,,SKC,0.00,VWS V14.01,2013-01-15 22:18:00,
2013-01-15 16:23:00,23.2,15.8,30.06,SW,234,7.0,14.0,73,0.00,,SKC,0.00,VWS V14.01,2013-01-15 22:23:00,
2013-01-15 16:28:00,23.0,16.0,30.06,SW,220,8.0,14.0,74,0.00,,SKC,0.00,VWS V14.01,2013-01-15 22:28:00,
2013-01-15 16:33:00,23.0,16.0,30.05,WSW,240,7.0,13.0,74,0.00,,SKC,0.00,VWS V14.01,2013-01-15 22:33:00,
2013-01-15 16:38:00,23.0,16.0,30.05,SW,234,7.0,13.0,74,0.00,,SKC,0.00,VWS V14.01,2013-01-15 22:38:00,
2013-01-15 16:43:00,22.7,16.0,30.05,WSW,253,8.0,11.0,75,0.00,,SKC,0.00,VWS V14.01,2013-01-15 22:43:00,
2013-01-15 16:48:00,22.5,15.8,30.05,WSW,240,6.0,11.0,75,0.00,,SKC,0.00,VWS V14.01,2013-01-15 22:48:00,
2013-01-15 16:53:00,22.4,15.7,30.05,SW,233,7.0,11.0,75,0.00,,SKC,0.00,VWS V14.01,2013-01-15 22:53:00,
2013-01-15 16:58:00,22.2,15.5,30.05,SW,222,10.0,12.0,75,0.00,,SKC,0.00,VWS V14.01,2013-01-15 22:58:00,
2013-01-15 17:03:00,22.1,15.4,30.05,SW,233,5.0,10.0,75,0.00,,SKC,0.00,VWS V14.01,2013-01-15 23:03:00,
2013-01-15 17:08:00,21.6,14.9,30.05,SW,230,6.0,10.0,75,0.00,,SKC,0.00,VWS V14.01,2013-01-15 23:08:00,
2013-01-15 17:13:00,21.4,14.7,30.05,WSW,239,8.0,10.0,75,0.00,,SKC,0.00,VWS V14.01,2013-01-15 23:13:00,
2013-01-15 17:18:00,21.3,14.6,30.04,SW,229,10.0,10.0,75,0.00,,SKC,0.00,VWS V14.01,2013-01-15 23:18:00,
2013-01-15 17:23:00,21.3,14.3,30.04,SW,236,10.0,11.0,74,0.00,,SKC,0.00,VWS V14.01,2013-01-15 23:23:00,
2013-01-15 17:28:00,21.3,14.3,30.04,SSW,213,7.0,11.0,74,0.00,,SKC,0.00,VWS V14.01,2013-01-15 23:28:00,
2013-01-15 17:33:00,21.1,14.1,30.03,WSW,243,7.0,10.0,74,0.00,,SKC,0.00,VWS V14.01,2013-01-15 23:33:00,
2013-01-15 17:38:00,20.8,13.8,30.03,SSW,202,7.0,10.0,74,0.00,,SKC,0.00,VWS V14.01,2013-01-15 23:38:00,
2013-01-15 17:43:00,20.6,13.6,30.03,SW,226,6.0,8.0,74,0.00,,SKC,0.00,VWS V14.01,2013-01-15 23:43:00,
2013-01-15 17:48:00,20.5,13.9,30.02,SW,230,6.0,11.0,75,0.00,,SKC,0.00,VWS V14.01,2013-01-15 23:48:00,
2013-01-15 17:53:00,20.5,13.5,30.02,SW,216,9.0,12.0,74,0.00,,SKC,0.00,VWS V14.01,2013-01-15 23:53:00,
2013-01-15 17:58:00,20.5,13.5,30.02,WSW,239,9.0,12.0,74,0.00,,SKC,0.00,VWS V14.01,2013-01-15 23:58:00,
2013-01-15 18:03:00,20.2,13.2,30.02,SSW,213,7.0,11.0,74,0.00,,SKC,0.00,VWS V14.01,2013-01-16 00:03:00,
2013-01-15 18:08:00,20.0,13.1,30.02,SW,226,8.0,12.0,74,0.00,,SKC,0.00,VWS V14.01,2013-01-16 00:08:00,
2013-01-15 18:13:00,20.0,12.8,30.02,SW,223,6.0,11.0,73,0.00,,SKC,0.00,VWS V14.01,2013-01-16 00:13:00,
2013-01-15 18:18:00,19.9,12.7,30.01,SW,222,10.0,11.0,73,0.00,,SKC,0.00,VWS V14.01,2013-01-16 00:18:00,
2013-01-15 18:23:00,19.9,12.7,30.01,WSW,237,10.0,13.0,73,0.00,,SKC,0.00,VWS V14.01,2013-01-16 00:23:00,
2013-01-15 18:28:00,19.9,12.7,30.01,WSW,241,6.0,13.0,73,0.00,,SKC,0.00,VWS V14.01,2013-01-16 00:28:00,
2013-01-15 18:33:00,19.4,12.5,30.00,WSW,251,7.0,8.0,74,0.00,,SKC,0.00,VWS V14.01,2013-01-16 00:33:00,
2013-01-15 18:38:00,19.5,12.3,30.00,SW,227,7.0,11.0,73,0.00,,SKC,0.00,VWS V14.01,2013-01-16 00:38:00,
2013-01-15 18:43:00,19.5,12.3,30.00,SW,226,8.0,11.0,73,0.00,,SKC,0.00,VWS V14.01,2013-01-16 00:43:00,
2013-01-15 18:48:00,19.5,12.3,29.99,SW,227,8.0,11.0,73,0.00,,SKC,0.00,VWS V14.01,2013-01-16 00:48:00,
2013-01-15 18:53:00,19.7,12.5,29.99,SW,217,7.0,14.0,73,0.00,,SKC,0.00,VWS V14.01,2013-01-16 00:53:00,
2013-01-15 18:58:00,19.5,12.3,29.99,WSW,239,8.0,14.0,73,0.00,,SKC,0.00,VWS V14.01,2013-01-16 00:58:00,
2013-01-15 19:03:00,19.2,12.3,29.99,SW,223,8.0,11.0,74,0.00,,SKC,0.00,VWS V14.01,2013-01-16 01:03:00,
2013-01-15 19:08:00,19.5,12.3,29.99,SW,230,8.0,12.0,73,0.00,,SKC,0.00,VWS V14.01,2013-01-16 01:08:00,
2013-01-15 19:13:00,19.5,12.3,29.99,SW,219,10.0,12.0,73,0.00,,SKC,0.00,VWS V14.01,2013-01-16 01:13:00,
2013-01-15 19:18:00,19.5,12.3,29.97,SW,233,7.0,13.0,73,0.00,,SKC,0.00,VWS V14.01,2013-01-16 01:18:00,
2013-01-15 19:23:00,19.7,12.5,29.97,SW,233,11.0,12.0,73,0.00,,SKC,0.00,VWS V14.01,2013-01-16 01:23:00,
2013-01-15 19:28:00,19.5,12.3,29.97,SSW,212,11.0,13.0,73,0.00,,SKC,0.00,VWS V14.01,2013-01-16 01:28:00,
2013-01-15 19:33:00,19.4,12.5,29.96,SW,229,12.0,14.0,74,0.00,,SKC,0.00,VWS V14.01,2013-01-16 01:33:00,
2013-01-15 19:38:00,19.4,12.2,29.96,SW,220,10.0,14.0,73,0.00,,SKC,0.00,VWS V14.01,2013-01-16 01:38:00,
2013-01-15 19:43:00,19.2,12.3,29.96,SW,229,7.0,12.0,74,0.00,,SKC,0.00,VWS V14.01,2013-01-16 01:43:00,
2013-01-15 19:48:00,19.1,12.2,29.95,SSW,210,10.0,13.0,74,0.00,,SKC,0.00,VWS V14.01,2013-01-16 01:48:00,
2013-01-15 19:53:00,19.1,12.5,29.95,WSW,243,11.0,13.0,75,0.00,,SKC,0.00,VWS V14.01,2013-01-16 01:53:00,
2013-01-15 19:58:00,18.8,12.2,29.95,SW,236,12.0,14.0,75,0.00,,SKC,0.00,VWS V14.01,2013-01-16 01:58:00,
2013-01-15 20:03:00,19.2,12.6,29.93,SSW,210,8.0,18.0,75,0.00,,SKC,0.00,VWS V14.01,2013-01-16 02:03:00,
2013-01-15 20:08:00,19.2,12.6,29.93,SW,220,11.0,18.0,75,0.00,,SKC,0.00,VWS V14.01,2013-01-16 02:08:00,
2013-01-15 20:13:00,19.2,12.6,29.93,SW,234,15.0,16.0,75,0.00,,SKC,0.00,VWS V14.01,2013-01-16 02:13:00,
2013-01-15 20:18:00,19.4,12.5,29.91,SSW,208,12.0,16.0,74,0.00,,SKC,0.00,VWS V14.01,2013-01-16 02:18:00,
2013-01-15 20:23:00,19.4,12.5,29.91,SW,227,10.0,14.0,74,0.00,,SKC,0.00,VWS V14.01,2013-01-16 02:23:00,
2013-01-15 20:28:00,19.7,12.5,29.91,SW,216,11.0,17.0,73,0.00,,SKC,0.00,VWS V14.01,2013-01-16 02:28:00,
2013-01-15 20:33:00,19.9,12.3,29.90,SW,227,8.0,14.0,72,0.00,,SKC,0.00,VWS V14.01,2013-01-16 02:33:00,
2013-01-15 20:38:00,19.9,12.0,29.90,SW,224,16.0,17.0,71,0.00,,SKC,0.00,VWS V14.01,2013-01-16 02:38:00,
2013-01-15 20:43:00,20.2,12.0,29.90,SW,233,11.0,15.0,70,0.00,,SKC,0.00,VWS V14.01,2013-01-16 02:43:00,
2013-01-15 20:48:00,20.5,11.6,29.90,WSW,248,13.0,15.0,68,0.00,,SKC,0.00,VWS V14.01,2013-01-16 02:48:00,
2013-01-15 20:53:00,20.3,11.4,29.90,WSW,241,8.0,13.0,68,0.00,,SKC,0.00,VWS V14.01,2013-01-16 02:53:00,
2013-01-15 20:58:00,20.5,11.6,29.90,WSW,237,11.0,16.0,68,0.00,,SKC,0.00,VWS V14.01,2013-01-16 02:58:00,
2013-01-15 21:03:00,20.6,11.4,29.89,SW,232,10.0,14.0,67,0.00,,SKC,0.00,VWS V14.01,2013-01-16 03:03:00,
2013-01-15 21:08:00,20.8,11.6,29.89,WSW,240,7.0,17.0,67,0.00,,SKC,0.00,VWS V14.01,2013-01-16 03:08:00,
2013-01-15 21:13:00,21.0,11.4,29.89,WSW,247,13.0,17.0,66,0.00,,SKC,0.00,VWS V14.01,2013-01-16 03:13:00,
2013-01-15 21:18:00,21.1,11.5,29.88,SW,230,11.0,17.0,66,0.00,,SKC,0.00,VWS V14.01,2013-01-16 03:18:00,
2013-01-15 21:23:00,21.0,11.4,29.88,SW,233,7.0,12.0,66,0.00,,SKC,0.00,VWS V14.01,2013-01-16 03:23:00,
2013-01-15 21:28:00,21.0,11.8,29.88,WSW,243,10.0,17.0,67,0.00,,SKC,0.00,VWS V14.01,2013-01-16 03:28:00,
2013-01-15 21:33:00,20.8,11.6,29.86,WSW,239,10.0,13.0,67,0.00,,SKC,0.00,VWS V14.01,2013-01-16 03:33:00,
2013-01-15 21:38:00,20.8,11.6,29.86,WSW,243,7.0,13.0,67,0.00,,SKC,0.00,VWS V14.01,2013-01-16 03:38:00,
2013-01-15 21:43:00,20.6,11.4,29.86,SW,233,12.0,12.0,67,0.00,,SKC,0.00,VWS V14.01,2013-01-16 03:43:00,
2013-01-15 21:48:00,20.6,11.4,29.85,SW,234,10.0,14.0,67,0.00,,SKC,0.00,VWS V14.01,2013-01-16 03:48:00,
2013-01-15 21:53:00,20.5,11.3,29.85,SW,236,9.0,12.0,67,0.00,,SKC,0.00,VWS V14.01,2013-01-16 03:53:00,
2013-01-15 21:58:00,20.3,11.4,29.85,SSW,212,10.0,17.0,68,0.00,,SKC,0.00,VWS V14.01,2013-01-16 03:58:00,
2013-01-15 22:03:00,20.3,11.4,29.84,SSW,213,11.0,17.0,68,0.00,,SKC,0.00,VWS V14.01,2013-01-16 04:03:00,
2013-01-15 22:08:00,20.3,11.8,29.84,SW,233,14.0,22.0,69,0.00,,SKC,0.00,VWS V14.01,2013-01-16 04:08:00,
2013-01-15 22:13:00,20.2,11.7,29.84,SW,230,14.0,16.0,69,0.00,,SKC,0.00,VWS V14.01,2013-01-16 04:13:00,
2013-01-15 22:18:00,20.2,11.7,29.82,SW,229,11.0,21.0,69,0.00,,SKC,0.00,VWS V14.01,2013-01-16 04:18:00,
2013-01-15 22:23:00,20.2,12.0,29.82,WSW,240,14.0,18.0,70,0.00,,SKC,0.00,VWS V14.01,2013-01-16 04:23:00,
2013-01-15 22:28:00,20.2,11.7,29.82,SW,217,9.0,20.0,69,0.00,,SKC,0.00,VWS V14.01,2013-01-16 04:28:00,
2013-01-15 22:33:00,20.0,11.8,29.81,SW,232,11.0,14.0,70,0.00,,SKC,0.00,VWS V14.01,2013-01-16 04:33:00,
2013-01-15 22:38:00,20.2,11.7,29.81,WSW,247,8.0,17.0,69,0.00,,SKC,0.00,VWS V14.01,2013-01-16 04:38:00,
2013-01-15 22:43:00,20.3,11.8,29.81,SW,230,11.0,14.0,69,0.00,,SKC,0.00,VWS V14.01,2013-01-16 04:43:00,
2013-01-15 22:48:00,20.5,12.0,29.81,WSW,244,11.0,15.0,69,0.00,,SKC,0.00,VWS V14.01,2013-01-16 04:48:00,
2013-01-15 22:53:00,21.0,12.1,29.81,WSW,237,12.0,18.0,68,0.00,,SKC,0.00,VWS V14.01,2013-01-16 04:53:00,
2013-01-15 22:58:00,21.3,12.4,29.81,SW,229,11.0,19.0,68,0.00,,SKC,0.00,VWS V14.01,2013-01-16 04:58:00,
2013-01-15 23:00:00,21.3,12.7,29.80,WSW,240,7.0,19.0,69,0.00,,SKC,0.00,VWS V14.01,2013-01-16 05:00:00,
2013-01-15 23:01:00,21.3,12.4,29.80,SW,230,7.0,13.0,68,0.00,,SKC,0.00,VWS V14.01,2013-01-16 05:01:00,
2013-01-15 23:06:00,21.4,12.5,29.80,SW,230,11.0,15.0,68,0.00,,SKC,0.00,VWS V14.01,2013-01-16 05:06:00,
2013-01-15 23:11:00,21.6,12.4,29.80,SW,227,13.0,14.0,67,0.00,,SKC,0.00,VWS V14.01,2013-01-16 05:11:00,
2013-01-15 23:16:00,21.8,12.5,29.78,SW,230,14.0,21.0,67,0.00,,SKC,0.00,VWS V14.01,2013-01-16 05:16:00,
2013-01-15 23:21:00,21.8,12.9,29.78,WSW,237,11.0,18.0,68,0.00,,SKC,0.00,VWS V14.01,2013-01-16 05:21:00,
2013-01-15 23:26:00,21.9,13.3,29.78,SW,224,12.0,18.0,69,0.00,,SKC,0.00,VWS V14.01,2013-01-16 05:26:00,
2013-01-15 23:31:00,21.9,13.0,29.77,SW,229,16.0,16.0,68,0.00,,SKC,0.00,VWS V14.01,2013-01-16 05:31:00,
2013-01-15 23:36:00,22.2,13.3,29.77,SW,229,8.0,19.0,68,0.00,,SKC,0.00,VWS V14.01,2013-01-16 05:36:00,
2013-01-15 23:41:00,22.4,13.4,29.77,SW,229,7.0,14.0,68,0.00,,SKC,0.00,VWS V14.01,2013-01-16 05:41:00,
2013-01-15 23:47:00,22.5,13.6,29.76,WSW,241,10.0,17.0,68,0.00,,SKC,0.00,VWS V14.01,2013-01-16 05:47:00,
2013-01-15 23:52:00,22.7,13.4,29.76,SW,234,11.0,17.0,67,0.00,,SKC,0.00,VWS V14.01,2013-01-16 05:52:00,
2013-01-15 23:56:00,22.7,13.7,29.76,WSW,241,12.0,19.0,68,0.00,,SKC,0.00,VWS V14.01,2013-01-16 05:56:00,